VTBU/UTP METAR and TAF weather

Enter ICAO airport designator
Station Type Date Time Source
VTBU METAR 2019/06/26 18:00 UTC NOAA

VTBU 261800Z 25008KT 7000 FEW020 28/24 Q1007 NOSIG


Station Type Date Time Source
VTBU Decoded METAR 2019/06/26 18:00 UTC NOAA

Rayong, Thailand (VTBU) 12-38N 101-21E 5M
Jun 26, 2019 - 02:00 PM EDT / 2019.06.26 1800 UTC
Wind: from the WSW (250 degrees) at 9 MPH (8 KT):0
Visibility: 4 mile(s):0
Sky conditions: mostly clear
Temperature: 82 F (28 C)
Dew Point: 75 F (24 C)
Relative Humidity: 78%
Pressure (altimeter): 29.74 in. Hg (1007 hPa)
ob: VTBU 261800Z 25008KT 7000 FEW020 28/24 Q1007 NOSIG
cycle: 18

Station Type Date Time Source
VTBU TAF 2019/06/26 18:36 UTC NOAA

TAF VTBU 261700Z 2618/2718 21004KT 8000 FEW020 SCT100
TEMPO 2619/2623 VRB12KT 5000 TSRA FEW018CB SCT035 BKN100
BECMG 2700/2702 22010KT 9999

Example: see airport list